createdAt,value
2019-06-07T00:01:50.564Z,99.90
2019-06-07T00:04:21.497Z,99.90
2019-06-07T00:06:51.467Z,99.90
2019-06-07T00:09:22.501Z,99.90
2019-06-07T00:11:52.984Z,99.90
2019-06-07T00:14:22.750Z,99.90
2019-06-07T00:16:52.591Z,99.90
2019-06-07T00:19:22.448Z,99.90
2019-06-07T00:22:15.737Z,99.90
2019-06-07T00:24:23.667Z,99.90
2019-06-07T00:26:58.724Z,99.90
2019-06-07T00:29:25.056Z,99.90
2019-06-07T00:31:54.961Z,99.90
2019-06-07T00:34:25.131Z,99.90
2019-06-07T00:36:55.032Z,99.90
2019-06-07T00:39:26.053Z,99.90
2019-06-07T00:41:56.158Z,99.90
2019-06-07T00:44:25.958Z,99.90
2019-06-07T00:46:56.135Z,99.90
2019-06-07T00:49:40.913Z,99.90
2019-06-07T00:51:57.506Z,99.90
2019-06-07T00:54:27.278Z,99.90
2019-06-07T00:56:57.075Z,99.90
2019-06-07T00:59:29.422Z,99.90
2019-06-07T01:01:58.395Z,99.90
2019-06-07T01:04:28.227Z,99.90
2019-06-07T01:06:58.063Z,99.90
2019-06-07T01:09:27.911Z,99.90
2019-06-07T01:11:57.659Z,99.90
2019-06-07T01:14:28.766Z,99.90
2019-06-07T01:17:20.183Z,99.90
2019-06-07T01:19:30.798Z,99.90
2019-06-07T01:22:00.583Z,99.90
2019-06-07T01:24:30.373Z,99.90
2019-06-07T01:27:00.146Z,99.90
2019-06-07T01:29:31.168Z,99.90
2019-06-07T01:32:01.257Z,99.90
2019-06-07T01:34:31.073Z,99.90
2019-06-07T01:37:00.883Z,99.90
2019-06-07T01:39:31.882Z,99.90
2019-06-07T01:42:01.920Z,99.90
2019-06-07T01:44:31.947Z,99.90
2019-06-07T01:47:01.723Z,99.90
2019-06-07T01:49:31.522Z,99.90
2019-06-07T01:52:01.346Z,99.90
2019-06-07T01:57:02.603Z,99.90
2019-06-07T01:59:32.496Z,99.90
2019-06-07T02:02:02.330Z,99.90
2019-06-07T02:04:33.389Z,99.90
2019-06-07T02:07:03.659Z,99.90
2019-06-07T02:09:33.548Z,99.90
2019-06-07T02:12:24.655Z,99.90
2019-06-07T02:14:34.867Z,99.90
2019-06-07T02:17:04.860Z,99.90
2019-06-07T02:19:34.733Z,99.90
2019-06-07T02:22:04.519Z,99.90
2019-06-07T02:24:35.919Z,99.90
2019-06-07T02:27:06.079Z,99.90
2019-06-07T02:29:35.891Z,99.90
2019-06-07T02:32:05.759Z,99.90
2019-06-07T02:34:39.212Z,99.90
2019-06-07T02:37:06.981Z,99.90
2019-06-07T02:39:40.222Z,99.90
2019-06-07T02:42:08.327Z,99.90
2019-06-07T02:44:39.879Z,99.90
2019-06-07T02:47:09.590Z,99.90
2019-06-07T02:49:41.588Z,99.90
2019-06-07T02:52:10.907Z,99.90
2019-06-07T02:54:41.030Z,99.90
2019-06-07T02:57:10.988Z,99.90
2019-06-07T03:00:05.736Z,99.90
2019-06-07T03:02:12.353Z,99.90
2019-06-07T03:04:44.766Z,99.90
2019-06-07T03:07:15.253Z,99.90
2019-06-07T03:09:47.164Z,99.90
2019-06-07T03:12:19.080Z,99.90
2019-06-07T03:14:49.287Z,99.90
2019-06-07T03:17:38.357Z,99.90
2019-06-07T03:20:09.689Z,99.90
2019-06-07T03:22:42.660Z,99.90
2019-06-07T03:25:12.684Z,99.90
2019-06-07T03:27:49.437Z,99.90
2019-06-07T03:32:47.850Z,99.90
2019-06-07T03:35:17.577Z,99.90
2019-06-07T03:37:47.356Z,99.90
2019-06-07T03:40:17.158Z,99.90
2019-06-07T03:42:46.927Z,99.90
2019-06-07T03:45:16.700Z,99.90
2019-06-07T03:47:46.509Z,99.90
2019-06-07T03:50:16.412Z,99.90
2019-06-07T03:52:46.227Z,99.90
2019-06-07T03:55:16.088Z,99.90
2019-06-07T03:58:30.038Z,99.90
2019-06-07T04:00:17.402Z,99.90
2019-06-07T04:02:47.243Z,99.90
2019-06-07T04:05:17.079Z,99.90
2019-06-07T04:07:46.848Z,99.90
2019-06-07T04:10:17.072Z,99.90
2019-06-07T04:12:46.935Z,99.90
2019-06-07T04:15:16.819Z,99.90
2019-06-07T04:18:01.262Z,99.90
2019-06-07T04:20:18.113Z,99.90
2019-06-07T04:22:47.963Z,99.90
2019-06-07T04:25:17.860Z,99.90
2019-06-07T04:27:49.697Z,99.90
2019-06-07T04:30:39.537Z,99.90
2019-06-07T04:33:10.271Z,99.90
2019-06-07T04:35:42.985Z,99.90
2019-06-07T04:38:13.703Z,99.90
2019-06-07T04:40:44.248Z,99.90
2019-06-07T04:43:14.568Z,99.90
2019-06-07T04:45:50.921Z,99.90
2019-06-07T04:48:16.905Z,99.90
2019-06-07T04:50:48.008Z,99.90
2019-06-07T04:53:17.911Z,99.90
2019-06-07T04:55:47.679Z,99.90
2019-06-07T04:58:17.484Z,99.90
2019-06-07T05:00:53.195Z,99.90
2019-06-07T05:03:18.711Z,99.90
2019-06-07T05:05:48.601Z,99.90
2019-06-07T05:08:28.253Z,99.90
2019-06-07T05:10:49.975Z,99.90
2019-06-07T05:13:19.789Z,99.90
2019-06-07T05:15:49.599Z,99.90
2019-06-07T05:18:19.409Z,99.90
2019-06-07T05:20:49.178Z,99.90
2019-06-07T05:24:00.255Z,99.90
2019-06-07T05:25:50.481Z,99.90
2019-06-07T05:28:20.297Z,99.90
2019-06-07T05:31:03.907Z,99.90
2019-06-07T05:33:21.613Z,99.90
2019-06-07T05:35:51.440Z,99.90
2019-06-07T05:38:21.339Z,99.90
2019-06-07T05:40:51.117Z,99.90
2019-06-07T05:43:28.393Z,99.90
2019-06-07T05:45:58.296Z,99.90
2019-06-07T05:48:28.099Z,99.90
2019-06-07T05:50:58.024Z,99.90
2019-06-07T05:53:28.354Z,99.90
2019-06-07T05:55:58.270Z,99.90
2019-06-07T05:58:28.068Z,99.90
2019-06-07T06:01:41.089Z,99.90
2019-06-07T06:03:29.437Z,99.90
2019-06-07T06:05:59.253Z,99.90
2019-06-07T06:08:29.049Z,99.90
2019-06-07T06:10:59.008Z,99.90
2019-06-07T06:13:28.897Z,99.90
2019-06-07T06:16:02.016Z,99.90
2019-06-07T06:18:30.140Z,99.90
2019-06-07T06:21:16.336Z,99.90
2019-06-07T06:23:31.566Z,99.90
2019-06-07T06:26:01.384Z,99.90
2019-06-07T06:28:31.300Z,99.90
2019-06-07T06:31:01.174Z,99.90
2019-06-07T06:33:34.499Z,99.90
2019-06-07T06:36:02.506Z,99.90
2019-06-07T06:38:32.390Z,99.90
2019-06-07T06:41:15.198Z,99.90
2019-06-07T06:43:33.650Z,99.90
2019-06-07T06:46:03.437Z,99.90
2019-06-07T06:48:33.359Z,99.90
2019-06-07T06:51:03.140Z,99.90
2019-06-07T06:53:32.927Z,99.90
2019-06-07T06:56:02.764Z,99.90
2019-06-07T06:59:18.809Z,99.90
2019-06-07T07:01:06.782Z,99.90
2019-06-07T07:03:57.525Z,96.30
2019-06-07T07:06:25.124Z,99.90
2019-06-07T07:08:43.349Z,84.70
2019-06-07T07:11:13.208Z,92.50
2019-06-07T07:13:48.144Z,99.90
2019-06-07T07:16:14.778Z,99.90
2019-06-07T07:18:46.913Z,99.90
2019-06-07T07:21:16.147Z,83.40
2019-06-07T07:24:08.551Z,75.10
2019-06-07T07:26:17.628Z,92.80
2019-06-07T07:28:53.952Z,81.10
2019-06-07T07:31:18.928Z,93.00
2019-06-07T07:36:38.063Z,93.60
2019-06-07T07:39:00.726Z,98.30
2019-06-07T07:41:23.188Z,82.20
2019-06-07T07:44:05.283Z,90.70
2019-06-07T07:46:29.724Z,78.30
2019-06-07T07:48:56.350Z,72.50
2019-06-07T07:51:26.280Z,83.30
2019-06-07T07:54:09.333Z,73.80
2019-06-07T07:56:27.795Z,83.50
2019-06-07T07:59:02.101Z,87.60
2019-06-07T08:01:29.269Z,82.10
2019-06-07T08:03:59.123Z,92.90
2019-06-07T08:06:29.037Z,87.50
2019-06-07T08:08:59.184Z,82.80
2019-06-07T08:11:29.455Z,79.60
2019-06-07T08:13:59.551Z,75.70
2019-06-07T08:16:29.383Z,75.90
2019-06-07T08:19:04.000Z,84.00
2019-06-07T08:21:30.739Z,89.90
2019-06-07T08:24:04.216Z,83.80
2019-06-07T08:26:32.217Z,64.40
2019-06-07T08:29:02.998Z,64.70
2019-06-07T08:31:33.213Z,65.80
2019-06-07T08:34:03.100Z,65.20
2019-06-07T08:36:41.789Z,60.30
2019-06-07T08:39:07.756Z,56.10
2019-06-07T08:41:53.405Z,56.00
2019-06-07T08:44:22.694Z,60.10
2019-06-07T08:46:41.558Z,60.50
2019-06-07T08:49:11.398Z,61.60
2019-06-07T08:51:41.272Z,63.80
2019-06-07T08:54:22.434Z,64.40
2019-06-07T08:56:43.639Z,68.00
2019-06-07T08:59:18.229Z,58.40
2019-06-07T09:01:57.980Z,59.10
2019-06-07T09:04:27.772Z,60.50
2019-06-07T09:07:09.194Z,59.30
2019-06-07T09:09:34.700Z,57.30
2019-06-07T09:12:10.726Z,60.20
2019-06-07T09:14:59.619Z,63.00
2019-06-07T09:17:18.969Z,60.90
2019-06-07T09:19:58.197Z,67.30
2019-06-07T09:22:30.571Z,65.70
2019-06-07T09:25:21.078Z,62.00
2019-06-07T09:27:50.113Z,65.00
2019-06-07T09:30:44.672Z,65.00
2019-06-07T09:33:15.323Z,65.20
2019-06-07T09:35:48.917Z,58.20
2019-06-07T09:38:26.825Z,57.30
2019-06-07T09:41:02.582Z,58.00
2019-06-07T09:46:12.861Z,57.80
2019-06-07T09:51:19.588Z,58.30
2019-06-07T09:53:45.307Z,55.30
2019-06-07T09:56:15.293Z,58.80
2019-06-07T09:58:51.977Z,56.30
2019-06-07T10:01:16.551Z,58.80
2019-06-07T10:03:46.317Z,58.70
2019-06-07T10:06:16.122Z,57.90
2019-06-07T10:10:04.708Z,58.10
2019-06-07T10:11:17.490Z,60.10
2019-06-07T10:13:47.298Z,58.80
2019-06-07T10:16:17.170Z,58.70
2019-06-07T10:18:47.249Z,58.10
2019-06-07T10:21:17.501Z,54.90
2019-06-07T10:23:47.314Z,56.60
2019-06-07T10:26:17.132Z,55.70
2019-06-07T10:28:47.093Z,57.60
2019-06-07T10:31:16.886Z,56.50
2019-06-07T10:33:46.675Z,58.20
2019-06-07T10:36:16.514Z,58.50
2019-06-07T10:38:46.250Z,61.60
2019-06-07T10:41:16.136Z,60.70
2019-06-07T10:43:45.914Z,60.20
2019-06-07T10:46:15.680Z,63.30
2019-06-07T10:48:45.485Z,64.30
2019-06-07T10:51:15.268Z,63.30
2019-06-07T10:53:45.076Z,65.50
2019-06-07T10:56:14.836Z,68.20
2019-06-07T10:58:44.630Z,71.60
2019-06-07T11:01:14.584Z,71.70
2019-06-07T11:03:44.461Z,77.40
2019-06-07T11:06:14.459Z,76.80
2019-06-07T11:08:44.440Z,70.10
2019-06-07T11:11:14.493Z,73.20
2019-06-07T11:13:44.426Z,71.00
2019-06-07T11:16:15.601Z,75.70
2019-06-07T11:18:45.694Z,80.00
2019-06-07T11:21:24.241Z,87.20
2019-06-07T11:23:54.113Z,84.20
2019-06-07T11:26:23.980Z,76.20
2019-06-07T11:28:53.795Z,82.00
2019-06-07T11:31:23.541Z,76.50
2019-06-07T11:33:53.328Z,71.30
2019-06-07T11:36:23.130Z,66.00
2019-06-07T11:38:52.926Z,72.60
2019-06-07T11:41:22.652Z,69.80
2019-06-07T11:43:52.440Z,74.80
2019-06-07T11:46:29.620Z,66.50
2019-06-07T11:48:59.458Z,66.60
2019-06-07T11:51:29.371Z,64.40
2019-06-07T11:54:20.340Z,66.80
2019-06-07T11:56:49.644Z,71.70
2019-06-07T11:59:19.393Z,68.00
2019-06-07T12:01:49.155Z,65.10
2019-06-07T12:04:32.435Z,68.20
2019-06-07T12:06:50.409Z,67.80
2019-06-07T12:09:20.219Z,67.30
2019-06-07T12:11:49.985Z,73.60
2019-06-07T12:14:19.800Z,75.10
2019-06-07T12:16:49.511Z,70.70
2019-06-07T12:19:19.813Z,68.20
2019-06-07T12:21:49.661Z,70.90
2019-06-07T12:24:21.069Z,68.80
2019-06-07T12:26:51.012Z,69.90
2019-06-07T12:29:21.128Z,68.40
2019-06-07T12:31:51.096Z,67.10
2019-06-07T12:34:21.674Z,63.30
2019-06-07T12:36:51.693Z,65.80
2019-06-07T12:39:22.269Z,64.70
2019-06-07T12:41:52.215Z,64.30
2019-06-07T12:44:22.852Z,61.70
2019-06-07T12:46:52.678Z,63.80
2019-06-07T12:49:23.580Z,64.40
2019-06-07T12:51:53.481Z,62.60
2019-06-07T12:54:23.879Z,66.10
2019-06-07T12:56:54.573Z,64.40
2019-06-07T12:59:24.438Z,60.30
2019-06-07T13:01:54.273Z,59.50
2019-06-07T13:04:25.000Z,58.90
2019-06-07T13:06:54.868Z,60.90
2019-06-07T13:09:24.727Z,60.30
2019-06-07T13:11:54.890Z,60.30
2019-06-07T13:14:24.693Z,59.70
2019-06-07T13:16:55.564Z,59.90
2019-06-07T13:19:25.614Z,57.60
2019-06-07T13:21:55.487Z,58.10
2019-06-07T13:24:25.393Z,56.00
2019-06-07T13:26:55.292Z,56.10
2019-06-07T13:29:29.285Z,56.90
2019-06-07T13:31:56.621Z,55.90
2019-06-07T13:34:26.487Z,55.70
2019-06-07T13:36:56.241Z,54.90
2019-06-07T13:39:29.280Z,55.30
2019-06-07T13:41:57.522Z,55.30
2019-06-07T13:44:27.342Z,54.70
2019-06-07T13:46:57.130Z,54.40
2019-06-07T13:49:27.838Z,55.00
2019-06-07T13:51:57.723Z,54.90
2019-06-07T13:54:27.809Z,54.20
2019-06-07T13:57:02.679Z,54.60
2019-06-07T13:59:29.211Z,54.00
2019-06-07T14:01:59.031Z,54.10
2019-06-07T14:04:29.166Z,54.10
2019-06-07T14:06:59.008Z,54.40
2019-06-07T14:09:29.787Z,55.10
2019-06-07T14:12:02.128Z,54.00
2019-06-07T14:14:31.928Z,55.30
2019-06-07T14:17:01.710Z,54.60
2019-06-07T14:19:31.495Z,55.10
2019-06-07T14:22:01.519Z,55.10
2019-06-07T14:24:31.472Z,54.00
2019-06-07T14:27:07.322Z,56.10
2019-06-07T14:29:38.178Z,54.70
2019-06-07T14:32:08.705Z,55.70
2019-06-07T14:34:38.603Z,56.20
2019-06-07T14:37:08.373Z,56.10
2019-06-07T14:39:38.236Z,55.20
2019-06-07T14:42:10.193Z,54.80
2019-06-07T14:44:39.605Z,55.00
2019-06-07T14:47:09.409Z,55.00
2019-06-07T14:49:39.259Z,54.90
2019-06-07T14:52:09.036Z,53.80
2019-06-07T14:54:39.438Z,54.10
2019-06-07T14:57:09.469Z,54.80
2019-06-07T14:59:39.292Z,53.60
2019-06-07T15:02:09.427Z,54.50
2019-06-07T15:04:42.863Z,54.00
2019-06-07T15:07:14.569Z,54.30
2019-06-07T15:09:44.724Z,55.20
2019-06-07T15:12:24.760Z,55.00
2019-06-07T15:14:46.285Z,55.20
2019-06-07T15:17:16.092Z,54.90
2019-06-07T15:19:45.870Z,55.20
2019-06-07T15:22:15.807Z,55.30
2019-06-07T15:24:45.597Z,55.40
2019-06-07T15:27:15.525Z,56.10
2019-06-07T15:29:45.375Z,55.20
2019-06-07T15:32:15.499Z,55.00
2019-06-07T15:34:45.545Z,54.40
2019-06-07T15:37:15.562Z,55.00
2019-06-07T15:39:48.224Z,56.10
2019-06-07T15:42:18.291Z,56.70
2019-06-07T15:44:48.227Z,55.80
2019-06-07T15:47:18.341Z,55.30
2019-06-07T15:49:48.736Z,55.90
2019-06-07T15:52:19.449Z,56.40
2019-06-07T15:54:49.507Z,56.20
2019-06-07T15:57:20.021Z,56.60
2019-06-07T15:59:50.585Z,56.10
2019-06-07T16:02:20.852Z,56.20
2019-06-07T16:04:51.468Z,56.60
2019-06-07T16:07:22.660Z,57.60
2019-06-07T16:10:08.616Z,56.60
2019-06-07T16:12:59.169Z,56.90
2019-06-07T16:15:22.359Z,57.90
2019-06-07T16:17:52.887Z,58.00
2019-06-07T16:20:23.259Z,58.70
2019-06-07T16:22:53.336Z,58.70
2019-06-07T16:25:23.633Z,59.00
2019-06-07T16:27:53.991Z,58.30
2019-06-07T16:30:25.579Z,58.80
2019-06-07T16:32:56.267Z,58.60
2019-06-07T16:35:26.813Z,58.70
2019-06-07T16:37:56.974Z,59.40
2019-06-07T16:40:27.069Z,59.50
2019-06-07T16:43:13.296Z,60.30
2019-06-07T16:45:30.298Z,60.50
2019-06-07T16:48:00.649Z,60.80
2019-06-07T16:50:30.872Z,61.10
2019-06-07T16:53:01.112Z,61.40
2019-06-07T16:55:31.130Z,62.10
2019-06-07T16:58:01.045Z,62.40
2019-06-07T17:00:30.992Z,63.30
2019-06-07T17:03:01.170Z,62.60
2019-06-07T17:05:31.791Z,64.10
2019-06-07T17:08:01.947Z,64.50
2019-06-07T17:10:32.367Z,65.00
2019-06-07T17:13:03.107Z,64.50
2019-06-07T17:15:35.555Z,65.20
2019-06-07T17:18:16.855Z,65.80
2019-06-07T17:20:49.837Z,67.40
2019-06-07T17:23:23.345Z,69.30
2019-06-07T17:25:57.507Z,68.10
2019-06-07T17:28:39.752Z,69.40
2019-06-07T17:31:11.309Z,70.20
2019-06-07T17:33:46.597Z,73.50
2019-06-07T17:36:22.206Z,74.40
2019-06-07T17:38:52.452Z,78.40
2019-06-07T17:41:22.511Z,79.50
2019-06-07T17:43:59.769Z,81.70
2019-06-07T17:46:31.249Z,89.20
2019-06-07T17:49:07.946Z,90.00
2019-06-07T17:51:41.692Z,91.60
2019-06-07T17:54:25.131Z,96.50
2019-06-07T17:56:54.928Z,97.20
2019-06-07T17:59:24.681Z,98.70
2019-06-07T18:02:13.469Z,99.90
2019-06-07T18:04:26.265Z,99.90
2019-06-07T18:06:56.778Z,99.90
2019-06-07T18:09:27.307Z,99.90
2019-06-07T18:11:58.447Z,99.90
2019-06-07T18:14:28.303Z,99.90
2019-06-07T18:16:58.955Z,99.90
2019-06-07T18:19:28.731Z,99.90
2019-06-07T18:21:59.215Z,99.90
2019-06-07T18:24:29.209Z,99.90
2019-06-07T18:26:59.273Z,99.90
2019-06-07T18:29:29.097Z,99.90
2019-06-07T18:32:00.384Z,99.90
2019-06-07T18:34:30.294Z,99.90
2019-06-07T18:37:00.068Z,99.90
2019-06-07T18:39:29.904Z,99.90
2019-06-07T18:41:59.772Z,99.90
2019-06-07T18:44:29.670Z,99.90
2019-06-07T18:46:59.458Z,99.90
2019-06-07T18:49:29.278Z,99.90
2019-06-07T18:52:24.487Z,99.90
2019-06-07T18:54:55.087Z,99.90
2019-06-07T18:57:25.593Z,99.90
2019-06-07T18:59:56.548Z,99.90
2019-06-07T19:02:26.706Z,99.90
2019-06-07T19:04:56.711Z,99.90
2019-06-07T19:07:27.003Z,99.90
2019-06-07T19:09:57.006Z,99.90
2019-06-07T19:12:26.872Z,99.90
2019-06-07T19:14:57.591Z,99.90
2019-06-07T19:17:27.742Z,99.90
2019-06-07T19:19:58.295Z,99.90
2019-06-07T19:22:28.419Z,99.90
2019-06-07T19:24:58.486Z,99.90
2019-06-07T19:27:28.361Z,99.90
2019-06-07T19:30:01.025Z,99.90
2019-06-07T19:32:30.579Z,99.90
2019-06-07T19:35:01.659Z,99.90
2019-06-07T19:37:32.197Z,99.90
2019-06-07T19:40:02.791Z,99.90
2019-06-07T19:42:32.863Z,99.90
2019-06-07T19:45:27.044Z,99.90
2019-06-07T19:47:34.579Z,99.90
2019-06-07T19:50:05.818Z,99.90
2019-06-07T19:52:38.300Z,99.90
2019-06-07T19:55:09.714Z,99.90
2019-06-07T19:57:42.774Z,99.90
2019-06-07T20:00:14.917Z,99.90
2019-06-07T20:02:45.407Z,99.90
2019-06-07T20:05:16.473Z,99.90
2019-06-07T20:07:46.652Z,99.90
2019-06-07T20:10:18.117Z,99.90
2019-06-07T20:12:48.776Z,99.90
2019-06-07T20:15:28.897Z,99.90
2019-06-07T20:17:55.139Z,99.90
2019-06-07T20:20:25.218Z,99.90
2019-06-07T20:22:56.674Z,99.90
2019-06-07T20:25:26.728Z,99.90
2019-06-07T20:27:57.076Z,99.90
2019-06-07T20:30:27.414Z,99.90
2019-06-07T20:32:57.655Z,99.90
2019-06-07T20:35:27.638Z,99.90
2019-06-07T20:37:58.939Z,99.90
2019-06-07T20:40:29.171Z,99.90
2019-06-07T20:42:59.368Z,99.90
2019-06-07T20:45:33.669Z,99.90
2019-06-07T20:48:01.992Z,99.90
2019-06-07T20:50:32.071Z,99.90
2019-06-07T20:53:03.140Z,99.90
2019-06-07T20:55:36.648Z,99.90
2019-06-07T20:58:07.277Z,99.90
2019-06-07T21:00:37.329Z,99.90
2019-06-07T21:03:07.458Z,99.90
2019-06-07T21:05:37.503Z,99.90
2019-06-07T21:08:09.804Z,99.90
2019-06-07T21:10:38.758Z,99.90
2019-06-07T21:13:10.112Z,99.90
2019-06-07T21:15:48.282Z,99.90
2019-06-07T21:18:18.803Z,99.90
2019-06-07T21:20:43.022Z,99.90
2019-06-07T21:23:13.154Z,99.90
2019-06-07T21:25:43.286Z,99.90
2019-06-07T21:28:14.295Z,99.90
2019-06-07T21:30:46.327Z,99.90
2019-06-07T21:33:18.603Z,99.90
2019-06-07T21:35:48.795Z,99.90
2019-06-07T21:38:18.570Z,99.90
2019-06-07T21:40:48.383Z,99.90
2019-06-07T21:43:18.152Z,99.90
2019-06-07T21:46:04.460Z,99.90
2019-06-07T21:48:22.671Z,99.90
2019-06-07T21:50:52.472Z,99.90
2019-06-07T21:53:22.314Z,99.90
2019-06-07T21:55:52.085Z,99.90
2019-06-07T21:58:21.836Z,99.90
2019-06-07T22:01:14.992Z,99.90
2019-06-07T22:03:44.706Z,99.90
2019-06-07T22:06:14.867Z,99.90
2019-06-07T22:08:44.712Z,99.90
2019-06-07T22:11:14.684Z,99.90
2019-06-07T22:13:44.565Z,99.90
2019-06-07T22:16:26.229Z,99.90
2019-06-07T22:18:45.754Z,99.90
2019-06-07T22:21:15.542Z,99.90
2019-06-07T22:23:45.281Z,99.90
2019-06-07T22:26:15.653Z,99.90
2019-06-07T22:28:45.610Z,99.90
2019-06-07T22:31:15.448Z,99.90
2019-06-07T22:33:45.256Z,99.90
2019-06-07T22:36:16.001Z,99.90
2019-06-07T22:38:45.952Z,99.90
2019-06-07T22:41:15.955Z,99.90
2019-06-07T22:43:45.890Z,99.90
2019-06-07T22:46:15.647Z,99.90
2019-06-07T22:48:45.461Z,99.90
2019-06-07T22:51:16.412Z,99.90
2019-06-07T22:53:46.473Z,99.90
2019-06-07T22:56:30.571Z,99.90
2019-06-07T22:59:00.375Z,99.90
2019-06-07T23:01:30.147Z,99.90
2019-06-07T23:03:59.922Z,99.90
2019-06-07T23:06:29.699Z,99.90
2019-06-07T23:08:59.542Z,99.90
2019-06-07T23:11:29.283Z,99.90
2019-06-07T23:13:59.096Z,99.90
2019-06-07T23:16:28.895Z,99.90
2019-06-07T23:18:58.683Z,99.90
2019-06-07T23:21:28.388Z,99.90
2019-06-07T23:23:58.230Z,99.90
2019-06-07T23:26:28.057Z,99.90
2019-06-07T23:28:57.880Z,99.90
2019-06-07T23:31:27.634Z,99.90
2019-06-07T23:33:57.594Z,99.90
2019-06-07T23:36:27.376Z,99.90
2019-06-07T23:38:57.161Z,99.90
2019-06-07T23:41:26.973Z,99.90
2019-06-07T23:43:56.837Z,99.90
2019-06-07T23:46:26.612Z,99.90
2019-06-07T23:48:56.407Z,99.90
2019-06-07T23:51:26.185Z,99.90
2019-06-07T23:53:55.984Z,99.90
2019-06-07T23:56:25.752Z,99.90
2019-06-07T23:58:55.557Z,99.90
